This is the latest recevied weather packets stored in our database for station/object IW0HP-3. If no packets are shown the sender has not sent any weather packets the latest 10 day(s).
| Time | Temp. | Humidity | Pressure | Rain* | Wind** | Luminosity | Snow |
|---|---|---|---|---|---|---|---|
| 1777749445 | 17.78° C | 49% | 1021.5 hPa | - | - | - | - |
| 1777748239 | 18.33° C | 45% | 1021.4 hPa | - | - | - | - |
| 1777747034 | 18.89° C | 41% | 1021.3 hPa | - | - | - | - |
| 1777745829 | 19.44° C | 36% | 1021.4 hPa | - | - | - | - |
| 1777744624 | 22.22° C | 31% | 1021.6 hPa | - | - | - | - |
| 1777743418 | 26.11° C | 28% | 1021.8 hPa | - | - | - | - |
| 1777742212 | 25.56° C | 32% | 1021.3 hPa | - | - | - | - |
| 1777741008 | 19.44° C | 37% | 1020.7 hPa | - | - | - | - |
| 1777739802 | 19.44° C | 36% | 1020.7 hPa | - | - | - | - |
| 1777738597 | 20° C | 35% | 1020.8 hPa | - | - | - | - |
| 1777736186 | 21.11° C | 33% | 1020.8 hPa | - | - | - | - |
| 1777734981 | 21.67° C | 30% | 1021.3 hPa | - | - | - | - |
| 1777733774 | 21.11° C | 30% | 1021.3 hPa | - | - | - | - |
| 1777731364 | 21.11° C | 29% | 1021.6 hPa | - | - | - | - |
| 1777730158 | 20.56° C | 30% | 1021.6 hPa | - | - | - | - |
| 1777728953 | 20.56° C | 27% | 1022.2 hPa | - | - | - | - |
| 1777727747 | 20.56° C | 28% | 1022.5 hPa | - | - | - | - |
| 1777726542 | 20° C | 29% | 1022.6 hPa | - | - | - | - |
| 1777725336 | 20° C | 29% | 1022.7 hPa | - | - | - | - |
| 1777724132 | 20° C | 27% | 1023.3 hPa | - | - | - | - |
| 1777722926 | 20° C | 28% | 1023.4 hPa | - | - | - | - |
| 1777721721 | 19.44° C | 28% | 1023.5 hPa | - | - | - | - |
| 1777720516 | 19.44° C | 27% | 1024 hPa | - | - | - | - |
| 1777719311 | 18.89° C | 28% | 1024.1 hPa | - | - | - | - |
| 1777718105 | 18.89° C | 28% | 1024.5 hPa | - | - | - | - |
* Rain since midnight (hover to see other rain measurements)
** Current wind speed in m/s (hover to see current wind gust speed)